Lebanon, VA

11:40 PM EST on December 19, 2014 (GMT -0500)
My Side Of The Mountain | Change Station
CLOSE
Current Station
Personal Weather Station
Location: Lebanon, VA
Elevation: 2480 ft
Nearby Weather Stations

Elev 2480 ft 36.85 °N, 82.12 °W | Updated 7 seconds ago

Clear
Clear
27.7 °F
Feels Like 28 °F
N
0.0
Wind Variable Wind from NNE
Gusts 0.0 mph

Today
High -- | Low -- °F
--% Chance of Precip.
Yesterday
High -- | Low -- °F
Precip. -- in
7:36 AM 5:14 PM
Waning Crescent, 4% visible
Pressure 30.16 in
Visibility 10.0 miles
Clouds Clear
Windchill 28 °F
Dew Point 25 °F
Humidity 89%
Rainfall 0.02 in
Snow Depth Not available.
UV 0 out of 12
Pollen .10 out of 12
Air Quality Not available.
Flu Activity Not available.
METAR KVJI 200415Z AUTO 00000KT 10SM CLR 00/M03 A3016 RMK AO2 T00001033

More Conditions Fewer Conditions

Pressure 30.16 in
Visibility 10.0 miles
Clouds Clear
Windchill 28 °F
Dew Point 25 °F
Humidity 89%
Rainfall 0.02 in
Snow Depth Not available.
UV 0 out of 12
Pollen .10 out of 12
Air Quality Not available.
Flu Activity Not available.
METAR KVJI 200415Z AUTO 00000KT 10SM CLR 00/M03 A3016 RMK AO2 T00001033

More Conditions Fewer Conditions

10-Day Weather Forecast

Almanac

Astronomy

Dec. 19, 2014 Rise Set
Actual Time
Civil Twilight
Nautical Twilight
Astronomical Twilight
Moon
Length of Visible Light
Length of Day
Tomorrow will be .
, % of the Moon is Illuminated

Today's Extremes

State Highs State Lows

Community

WunderPhotos

Upload Photos

1,779,130 photos uploaded!

WunderBlogs® & News

Nearby

Air Quality

  Air Quality AQ Index Pollutant
Not available.

Snow Depth

Station Depth Elevation

Earthquake Activity

City Distance Mag. Time & Date
Minimum magnitude displayed is 2.5.

Coastal Water Temperatures

Place Temperature

Nearby Weather Stations